createdAt,value
2022-11-24T00:01:12.738Z,10.80
2022-11-24T00:03:40.336Z,13.27
2022-11-24T00:06:10.937Z,12.13
2022-11-24T00:08:40.133Z,20.00
2022-11-24T00:11:10.672Z,12.35
2022-11-24T00:13:39.284Z,16.42
2022-11-24T00:16:19.359Z,10.73
2022-11-24T00:18:48.735Z,12.13
2022-11-24T00:21:17.801Z,12.00
2022-11-24T00:23:46.347Z,10.82
2022-11-24T00:26:26.036Z,15.95
2022-11-24T00:28:58.769Z,12.85
2022-11-24T00:31:32.268Z,13.45
2022-11-24T00:34:02.881Z,15.15
2022-11-24T00:36:32.930Z,11.68
2022-11-24T00:39:03.949Z,7.93
2022-11-24T00:41:32.125Z,11.93
2022-11-24T00:44:00.290Z,12.68
2022-11-24T00:46:28.379Z,12.25
2022-11-24T00:48:56.415Z,9.20
2022-11-24T00:51:27.951Z,15.38
2022-11-24T00:53:56.666Z,9.82
2022-11-24T00:56:25.562Z,13.05
2022-11-24T00:58:53.348Z,15.50
2022-11-24T01:01:25.912Z,10.50
2022-11-24T01:03:55.321Z,12.23
2022-11-24T01:06:26.013Z,11.05
2022-11-24T01:08:54.530Z,12.80
2022-11-24T01:11:52.579Z,11.50
2022-11-24T01:14:21.395Z,12.57
2022-11-24T01:16:49.020Z,9.63
2022-11-24T01:19:16.799Z,10.70
2022-11-24T01:21:44.389Z,10.32
2022-11-24T01:24:12.243Z,11.48
2022-11-24T01:26:39.829Z,12.05
2022-11-24T01:29:07.440Z,12.20
2022-11-24T01:31:36.958Z,8.20
2022-11-24T01:34:04.586Z,11.45
2022-11-24T01:36:32.200Z,10.65
2022-11-24T01:38:59.913Z,14.00
2022-11-24T01:41:27.711Z,15.15
2022-11-24T01:43:56.454Z,13.00
2022-11-24T01:46:32.484Z,14.00
2022-11-24T01:49:00.096Z,11.10
2022-11-24T01:51:30.672Z,11.82
2022-11-24T01:54:04.889Z,10.73
2022-11-24T01:56:34.777Z,13.05
2022-11-24T01:59:05.285Z,10.20
2022-11-24T02:01:33.157Z,12.43
2022-11-24T02:04:03.961Z,13.00
2022-11-24T02:06:34.757Z,12.30
2022-11-24T02:09:26.616Z,12.10
2022-11-24T02:11:54.874Z,12.07
2022-11-24T02:14:24.290Z,11.13
2022-11-24T02:16:53.099Z,10.43
2022-11-24T02:19:35.083Z,10.70
2022-11-24T02:22:03.992Z,12.57
2022-11-24T02:24:52.194Z,14.05
2022-11-24T02:27:20.214Z,10.40
2022-11-24T02:29:49.065Z,12.88
2022-11-24T02:32:17.241Z,14.57
2022-11-24T02:34:44.802Z,10.57
2022-11-24T02:37:12.293Z,13.07
2022-11-24T02:39:39.848Z,14.25
2022-11-24T02:42:12.974Z,15.02
2022-11-24T02:44:45.509Z,21.67
2022-11-24T02:47:13.393Z,14.43
2022-11-24T02:49:43.578Z,9.98
2022-11-24T02:52:11.973Z,14.48
2022-11-24T02:54:39.555Z,15.60
2022-11-24T02:57:07.186Z,16.63
2022-11-24T02:59:34.792Z,13.95
2022-11-24T03:02:02.952Z,16.85
2022-11-24T03:04:30.549Z,18.45
2022-11-24T03:06:58.373Z,18.45
2022-11-24T03:09:26.163Z,13.80
2022-11-24T03:11:53.653Z,19.85
2022-11-24T03:14:21.188Z,15.93
2022-11-24T03:16:48.723Z,17.77
2022-11-24T03:19:16.229Z,13.45
2022-11-24T03:21:43.777Z,22.45
2022-11-24T03:24:11.310Z,16.98
2022-11-24T03:26:38.882Z,13.23
2022-11-24T03:29:06.421Z,20.13
2022-11-24T03:31:34.025Z,11.10
2022-11-24T03:34:01.623Z,10.23
2022-11-24T03:36:29.169Z,19.48
2022-11-24T03:38:56.709Z,13.55
2022-11-24T03:41:24.213Z,15.90
2022-11-24T03:43:52.150Z,14.27
2022-11-24T03:46:19.705Z,14.40
2022-11-24T03:48:47.226Z,23.70
2022-11-24T03:51:14.772Z,17.13
2022-11-24T03:53:42.425Z,18.50
2022-11-24T03:56:10.075Z,19.42
2022-11-24T03:58:37.615Z,13.32
2022-11-24T04:01:05.194Z,21.35
2022-11-24T04:03:32.726Z,19.88
2022-11-24T04:06:00.252Z,15.48
2022-11-24T04:08:27.830Z,13.10
2022-11-24T04:10:55.541Z,23.77
2022-11-24T04:13:25.369Z,17.45
2022-11-24T04:15:53.112Z,14.73
2022-11-24T04:18:21.044Z,18.42
2022-11-24T04:20:51.954Z,18.63
2022-11-24T04:23:19.529Z,11.30
2022-11-24T04:25:47.169Z,17.50
2022-11-24T04:28:14.747Z,18.95
2022-11-24T04:30:44.701Z,14.98
2022-11-24T04:33:13.430Z,19.20
2022-11-24T04:35:41.097Z,18.00
2022-11-24T04:38:08.790Z,16.23
2022-11-24T04:40:36.932Z,19.25
2022-11-24T04:43:04.614Z,20.80
2022-11-24T04:45:32.133Z,12.32
2022-11-24T04:47:59.698Z,13.57
2022-11-24T04:50:27.271Z,12.95
2022-11-24T04:52:54.813Z,21.40
2022-11-24T04:55:22.476Z,14.05
2022-11-24T04:57:50.083Z,16.10
2022-11-24T05:00:18.199Z,21.67
2022-11-24T05:02:45.820Z,22.77
2022-11-24T05:05:13.386Z,13.65
2022-11-24T05:07:40.940Z,36.08
2022-11-24T05:10:27.377Z,21.20
2022-11-24T05:12:56.960Z,23.23
2022-11-24T05:15:24.460Z,24.58
2022-11-24T05:17:52.225Z,16.58
2022-11-24T05:20:20.117Z,17.60
2022-11-24T05:22:47.788Z,19.77
2022-11-24T05:25:15.702Z,21.77
2022-11-24T05:27:43.754Z,21.63
2022-11-24T05:30:11.793Z,16.50
2022-11-24T05:32:39.325Z,21.33
2022-11-24T05:35:09.677Z,19.83
2022-11-24T05:37:37.704Z,16.38
2022-11-24T05:40:06.947Z,17.95
2022-11-24T05:42:46.293Z,23.55
2022-11-24T05:45:20.621Z,22.48
2022-11-24T05:47:49.532Z,33.42
2022-11-24T05:50:19.231Z,29.77
2022-11-24T05:52:47.256Z,20.85
2022-11-24T05:55:16.088Z,18.80
2022-11-24T05:57:43.849Z,21.40
2022-11-24T06:00:12.321Z,19.63
2022-11-24T06:02:42.785Z,20.98
2022-11-24T06:05:10.621Z,22.08
2022-11-24T06:07:38.339Z,34.22
2022-11-24T06:10:06.176Z,24.85
2022-11-24T06:12:33.748Z,20.65
2022-11-24T06:15:01.561Z,19.20
2022-11-24T06:17:29.646Z,22.65
2022-11-24T06:19:57.214Z,24.52
2022-11-24T06:22:24.872Z,27.95
2022-11-24T06:24:52.368Z,19.60
2022-11-24T06:27:19.977Z,20.52
2022-11-24T06:29:47.790Z,24.52
2022-11-24T06:32:15.631Z,20.67
2022-11-24T06:34:44.396Z,28.77
2022-11-24T06:37:11.930Z,26.52
2022-11-24T06:39:39.460Z,31.90
2022-11-24T06:42:07.005Z,21.48
2022-11-24T06:44:34.755Z,26.40
2022-11-24T06:47:02.442Z,20.98
2022-11-24T06:49:29.958Z,23.67
2022-11-24T06:51:57.514Z,29.60
2022-11-24T06:54:25.002Z,27.08
2022-11-24T06:56:57.352Z,30.20
2022-11-24T06:59:26.490Z,28.02
2022-11-24T07:01:54.447Z,26.45
2022-11-24T07:04:22.056Z,21.02
2022-11-24T07:06:49.668Z,14.60
2022-11-24T07:09:17.204Z,22.88
2022-11-24T07:11:44.725Z,23.38
2022-11-24T07:14:12.760Z,21.40
2022-11-24T07:16:40.870Z,24.80
2022-11-24T07:19:10.873Z,28.55
2022-11-24T07:21:38.430Z,35.38
2022-11-24T07:24:06.373Z,28.35
2022-11-24T07:26:37.369Z,25.48
2022-11-24T07:29:05.706Z,28.67
2022-11-24T07:31:33.396Z,35.65
2022-11-24T07:34:01.185Z,26.33
2022-11-24T07:36:28.762Z,26.33
2022-11-24T07:38:56.390Z,27.00
2022-11-24T07:41:23.958Z,41.90
2022-11-24T07:43:51.967Z,39.20
2022-11-24T07:46:20.449Z,27.00
2022-11-24T07:48:48.036Z,22.85
2022-11-24T07:51:16.107Z,32.28
2022-11-24T07:53:44.987Z,30.45
2022-11-24T07:56:13.217Z,24.45
2022-11-24T07:58:40.845Z,22.38
2022-11-24T08:01:18.105Z,31.63
2022-11-24T08:04:02.194Z,27.08
2022-11-24T08:06:38.578Z,23.50
2022-11-24T08:09:08.509Z,24.52
2022-11-24T08:11:36.738Z,26.25
2022-11-24T08:14:04.269Z,27.25
2022-11-24T08:16:32.291Z,26.83
2022-11-24T08:19:00.043Z,32.22
2022-11-24T08:21:27.778Z,17.67
2022-11-24T08:23:58.779Z,31.98
2022-11-24T08:26:26.699Z,20.95
2022-11-24T08:28:57.222Z,27.65
2022-11-24T08:31:32.615Z,22.90
2022-11-24T08:34:00.891Z,26.08
2022-11-24T08:36:28.465Z,27.50
2022-11-24T08:38:57.656Z,35.33
2022-11-24T08:41:27.005Z,26.73
2022-11-24T08:43:55.030Z,25.25
2022-11-24T08:46:23.872Z,30.35
2022-11-24T08:48:53.845Z,28.90
2022-11-24T08:51:24.136Z,30.77
2022-11-24T08:53:58.760Z,26.77
2022-11-24T08:56:32.573Z,29.35
2022-11-24T08:59:00.429Z,25.65
2022-11-24T09:01:29.016Z,32.22
2022-11-24T09:03:56.998Z,28.27
2022-11-24T09:06:31.031Z,24.05
2022-11-24T09:08:59.520Z,28.15
2022-11-24T09:11:27.687Z,31.80
2022-11-24T09:13:55.803Z,25.23
2022-11-24T09:16:28.945Z,28.48
2022-11-24T09:19:04.475Z,26.55
2022-11-24T09:21:34.412Z,30.90
2022-11-24T09:24:02.143Z,31.83
2022-11-24T09:26:32.632Z,34.65
2022-11-24T09:29:01.876Z,29.55
2022-11-24T09:31:34.956Z,23.60
2022-11-24T09:34:04.836Z,25.17
2022-11-24T09:36:32.621Z,28.02
2022-11-24T09:39:00.462Z,28.30
2022-11-24T09:41:52.643Z,24.10
2022-11-24T09:44:38.061Z,25.05
2022-11-24T09:47:32.648Z,31.45
2022-11-24T09:50:15.941Z,28.35
2022-11-24T09:53:03.646Z,31.95
2022-11-24T09:55:39.172Z,24.38
2022-11-24T09:58:18.062Z,25.25
2022-11-24T10:00:48.581Z,29.77
2022-11-24T10:03:24.866Z,35.30
2022-11-24T10:05:53.359Z,27.45
2022-11-24T10:08:59.291Z,27.05
2022-11-24T10:11:38.121Z,32.03
2022-11-24T10:14:08.750Z,28.90
2022-11-24T10:17:05.431Z,26.83
2022-11-24T10:20:02.731Z,37.00
2022-11-24T10:22:52.347Z,22.15
2022-11-24T10:25:42.933Z,24.05
2022-11-24T10:28:14.626Z,27.30
2022-11-24T10:30:42.802Z,34.67
2022-11-24T10:33:13.371Z,29.50
2022-11-24T10:35:47.845Z,36.78
2022-11-24T10:38:21.266Z,24.50
2022-11-24T10:41:03.305Z,32.03
2022-11-24T10:43:30.989Z,36.65
2022-11-24T10:46:19.579Z,21.08
2022-11-24T10:49:00.198Z,27.10
2022-11-24T10:51:52.906Z,31.15
2022-11-24T10:54:23.485Z,27.48
2022-11-24T10:56:53.434Z,29.58
2022-11-24T10:59:21.034Z,30.17
2022-11-24T11:01:48.888Z,29.58
2022-11-24T11:04:40.994Z,32.90
2022-11-24T11:07:20.748Z,38.47
2022-11-24T11:09:49.022Z,30.17
2022-11-24T11:12:43.215Z,27.48
2022-11-24T11:15:21.832Z,27.02
2022-11-24T11:17:52.443Z,32.90
2022-11-24T11:20:28.017Z,27.95
2022-11-24T11:22:58.933Z,24.50
2022-11-24T11:25:30.982Z,34.33
2022-11-24T11:28:18.340Z,31.63
2022-11-24T11:31:21.312Z,29.42
2022-11-24T11:34:12.472Z,23.33
2022-11-24T11:36:48.318Z,22.75
2022-11-24T11:39:26.705Z,30.13
2022-11-24T11:42:45.239Z,18.40
2022-11-24T11:45:13.967Z,32.63
2022-11-24T11:48:15.171Z,21.17
2022-11-24T11:54:08.014Z,25.83
2022-11-24T11:56:44.302Z,26.88
2022-11-24T11:59:30.145Z,24.50
2022-11-24T12:02:54.066Z,38.95
2022-11-24T12:05:34.959Z,29.65
2022-11-24T12:08:15.983Z,20.05
2022-11-24T12:11:09.940Z,24.15
2022-11-24T12:13:48.579Z,24.60
2022-11-24T12:16:34.240Z,24.50
2022-11-24T12:19:27.408Z,21.92
2022-11-24T12:22:08.346Z,30.95
2022-11-24T12:24:45.279Z,24.67
2022-11-24T12:27:24.206Z,20.05
2022-11-24T12:30:11.805Z,24.90
2022-11-24T12:32:48.019Z,23.48
2022-11-24T12:35:44.376Z,19.25
2022-11-24T12:38:47.213Z,20.50
2022-11-24T12:41:41.772Z,36.92
2022-11-24T12:44:37.811Z,22.17
2022-11-24T12:47:27.288Z,26.80
2022-11-24T12:50:15.864Z,20.48
2022-11-24T12:53:32.841Z,26.65
2022-11-24T12:56:13.416Z,29.17
2022-11-24T12:59:00.207Z,21.50
2022-11-24T13:01:45.157Z,25.98
2022-11-24T13:04:12.842Z,23.85
2022-11-24T13:06:48.798Z,28.65
2022-11-24T13:09:17.449Z,17.30
2022-11-24T13:11:47.123Z,20.48
2022-11-24T13:14:30.548Z,26.70
2022-11-24T13:19:52.082Z,22.13
2022-11-24T13:22:25.523Z,22.55
2022-11-24T13:25:15.143Z,26.58
2022-11-24T13:27:45.516Z,24.55
2022-11-24T13:30:34.995Z,26.48
2022-11-24T13:33:16.187Z,26.83
2022-11-24T13:36:02.900Z,10.85
2022-11-24T13:38:45.670Z,7.93
2022-11-24T13:41:42.082Z,7.57
2022-11-24T13:44:15.433Z,5.95
2022-11-24T13:47:32.469Z,6.93
2022-11-24T13:50:01.930Z,8.75
2022-11-24T13:52:53.443Z,8.38
2022-11-24T13:55:40.212Z,11.52
2022-11-24T13:58:13.539Z,9.85
2022-11-24T14:01:01.912Z,6.88
2022-11-24T14:03:34.501Z,8.65
2022-11-24T14:06:03.164Z,9.20
2022-11-24T14:08:36.825Z,8.40
2022-11-24T14:11:16.529Z,10.20
2022-11-24T14:13:44.220Z,8.95
2022-11-24T14:16:24.642Z,8.00
2022-11-24T14:18:52.690Z,9.60
2022-11-24T14:21:20.280Z,5.63
2022-11-24T14:23:52.135Z,7.28
2022-11-24T14:26:22.660Z,10.15
2022-11-24T14:28:50.979Z,8.65
2022-11-24T14:31:24.775Z,11.40
2022-11-24T14:34:19.278Z,5.35
2022-11-24T14:36:47.756Z,7.95
2022-11-24T14:39:20.281Z,14.13
2022-11-24T14:42:03.521Z,9.93
2022-11-24T14:44:46.298Z,9.35
2022-11-24T14:47:17.533Z,10.85
2022-11-24T14:49:45.265Z,7.80
2022-11-24T14:52:16.129Z,11.70
2022-11-24T14:54:49.689Z,12.35
2022-11-24T14:57:26.104Z,13.55
2022-11-24T15:00:19.568Z,15.93
2022-11-24T15:02:51.966Z,10.02
2022-11-24T15:05:25.006Z,10.23
2022-11-24T15:08:02.770Z,10.20
2022-11-24T15:10:36.303Z,7.90
2022-11-24T15:13:13.837Z,13.02
2022-11-24T15:15:51.663Z,9.70
2022-11-24T15:18:37.363Z,11.48
2022-11-24T15:21:05.303Z,12.63
2022-11-24T15:23:37.081Z,13.13
2022-11-24T15:26:04.538Z,11.73
2022-11-24T15:28:33.109Z,9.73
2022-11-24T15:31:06.255Z,13.05
2022-11-24T15:33:33.904Z,11.25
2022-11-24T15:36:01.598Z,11.35
2022-11-24T15:38:29.131Z,12.50
2022-11-24T15:40:59.671Z,10.55
2022-11-24T15:43:40.182Z,12.85
2022-11-24T15:46:09.140Z,11.25
2022-11-24T15:48:36.985Z,8.40
2022-11-24T15:51:13.052Z,10.02
2022-11-24T15:53:50.057Z,9.07
2022-11-24T15:56:29.310Z,9.55
2022-11-24T15:58:57.443Z,12.88
2022-11-24T16:01:28.760Z,10.35
2022-11-24T16:03:56.383Z,9.65
2022-11-24T16:06:25.244Z,10.00
2022-11-24T16:08:54.204Z,8.95
2022-11-24T16:11:22.595Z,11.93
2022-11-24T16:13:53.283Z,12.90
2022-11-24T16:16:23.018Z,13.00
2022-11-24T16:18:50.829Z,10.95
2022-11-24T16:21:18.511Z,15.77
2022-11-24T16:23:46.584Z,9.48
2022-11-24T16:26:14.153Z,12.52
2022-11-24T16:28:42.830Z,10.43
2022-11-24T16:31:10.397Z,13.02
2022-11-24T16:33:40.755Z,13.32
2022-11-24T16:36:08.826Z,12.88
2022-11-24T16:38:36.350Z,15.90
2022-11-24T16:41:04.066Z,13.00
2022-11-24T16:43:31.775Z,16.15
2022-11-24T16:46:16.063Z,15.57
2022-11-24T16:48:45.458Z,14.35
2022-11-24T16:51:14.542Z,11.73
2022-11-24T16:53:42.782Z,10.15
2022-11-24T16:56:11.017Z,15.32
2022-11-24T16:58:40.280Z,13.30
2022-11-24T17:01:10.729Z,13.80
2022-11-24T17:03:38.694Z,13.10
2022-11-24T17:06:09.488Z,13.52
2022-11-24T17:08:39.570Z,12.90
2022-11-24T17:11:13.308Z,13.07
2022-11-24T17:13:41.618Z,8.93
2022-11-24T17:16:14.346Z,11.07
2022-11-24T17:18:42.492Z,11.93
2022-11-24T17:21:15.645Z,11.65
2022-11-24T17:23:43.645Z,13.57
2022-11-24T17:26:15.987Z,12.63
2022-11-24T17:28:44.131Z,8.32
2022-11-24T17:31:22.241Z,8.75
2022-11-24T17:33:51.395Z,10.25
2022-11-24T17:36:19.114Z,11.38
2022-11-24T17:38:46.693Z,11.00
2022-11-24T17:41:14.244Z,11.50
2022-11-24T17:43:41.881Z,9.70
2022-11-24T17:46:10.422Z,14.77
2022-11-24T17:48:37.965Z,10.90
2022-11-24T17:51:14.219Z,14.45
2022-11-24T17:53:43.294Z,14.98
2022-11-24T17:56:19.635Z,8.88
2022-11-24T17:58:47.222Z,12.60
2022-11-24T18:01:14.889Z,12.80
2022-11-24T18:03:42.711Z,14.00
2022-11-24T18:06:12.052Z,10.95
2022-11-24T18:08:42.006Z,12.80
2022-11-24T18:11:12.938Z,11.80
2022-11-24T18:13:56.736Z,20.02
2022-11-24T18:16:29.987Z,13.90
2022-11-24T18:19:08.242Z,14.85
2022-11-24T18:21:40.791Z,14.05
2022-11-24T18:24:09.954Z,16.05
2022-11-24T18:26:38.776Z,13.10
2022-11-24T18:29:06.587Z,11.38
2022-11-24T18:31:35.644Z,16.67
2022-11-24T18:34:05.702Z,19.00
2022-11-24T18:36:34.686Z,13.52
2022-11-24T18:39:05.558Z,15.45
2022-11-24T18:41:33.230Z,12.45
2022-11-24T18:44:03.094Z,15.95
2022-11-24T18:46:30.797Z,10.43
2022-11-24T18:48:59.352Z,16.80
2022-11-24T18:51:27.266Z,20.27
2022-11-24T18:53:54.935Z,14.15
2022-11-24T18:56:22.458Z,21.98
2022-11-24T18:58:53.562Z,23.35
2022-11-24T19:01:28.954Z,15.48
2022-11-24T19:03:58.845Z,18.25
2022-11-24T19:06:32.825Z,18.85
2022-11-24T19:09:03.627Z,19.65
2022-11-24T19:11:37.095Z,22.65
2022-11-24T19:14:06.362Z,19.13
2022-11-24T19:16:34.098Z,20.50
2022-11-24T19:19:02.999Z,19.58
2022-11-24T19:21:32.715Z,16.85
2022-11-24T19:24:04.839Z,19.38
2022-11-24T19:26:36.762Z,13.27
2022-11-24T19:29:05.422Z,20.73
2022-11-24T19:31:34.567Z,21.40
2022-11-24T19:34:03.595Z,13.63
2022-11-24T19:36:31.248Z,16.98
2022-11-24T19:38:59.740Z,15.27
2022-11-24T19:41:29.709Z,17.30
2022-11-24T19:43:58.643Z,26.83
2022-11-24T19:46:29.336Z,14.07
2022-11-24T19:49:00.433Z,21.73
2022-11-24T19:51:31.045Z,14.88
2022-11-24T19:53:59.626Z,17.83
2022-11-24T19:56:29.757Z,20.65
2022-11-24T19:58:57.626Z,16.60
2022-11-24T20:01:44.755Z,16.90
2022-11-24T20:04:14.974Z,21.55
2022-11-24T20:06:46.512Z,23.48
2022-11-24T20:09:16.650Z,24.10
2022-11-24T20:11:44.851Z,21.58
2022-11-24T20:14:14.457Z,24.83
2022-11-24T20:16:42.248Z,26.40
2022-11-24T20:19:12.872Z,20.63
2022-11-24T20:21:47.709Z,24.33
2022-11-24T20:24:25.039Z,19.10
2022-11-24T20:26:56.426Z,20.70
2022-11-24T20:29:24.539Z,26.48
2022-11-24T20:31:54.571Z,28.55
2022-11-24T20:34:23.424Z,16.95
2022-11-24T20:36:52.938Z,18.00
2022-11-24T20:39:27.953Z,23.58
2022-11-24T20:41:56.330Z,24.95
2022-11-24T20:44:26.587Z,24.73
2022-11-24T20:46:56.783Z,22.33
2022-11-24T20:49:25.125Z,23.25
2022-11-24T20:51:57.585Z,24.77
2022-11-24T20:54:25.388Z,24.40
2022-11-24T20:56:53.193Z,20.52
2022-11-24T20:59:23.670Z,25.67
2022-11-24T21:01:55.253Z,17.83
2022-11-24T21:04:25.412Z,28.52
2022-11-24T21:06:53.621Z,28.17
2022-11-24T21:09:21.337Z,20.15
2022-11-24T21:11:49.439Z,22.17
2022-11-24T21:14:17.089Z,19.98
2022-11-24T21:16:45.146Z,25.33
2022-11-24T21:19:15.067Z,33.70
2022-11-24T21:21:43.445Z,24.33
2022-11-24T21:24:15.784Z,16.60
2022-11-24T21:26:47.653Z,22.98
2022-11-24T21:29:17.930Z,22.67
2022-11-24T21:31:45.560Z,20.70
2022-11-24T21:34:19.070Z,19.73
2022-11-24T21:36:47.084Z,21.52
2022-11-24T21:39:15.245Z,24.95
2022-11-24T21:41:43.274Z,21.50
2022-11-24T21:44:14.223Z,21.50
2022-11-24T21:46:48.175Z,18.08
2022-11-24T21:49:20.273Z,26.35
2022-11-24T21:51:47.969Z,24.15
2022-11-24T21:54:15.526Z,30.13
2022-11-24T21:56:43.161Z,25.08
2022-11-24T21:59:10.672Z,19.88
2022-11-24T22:01:38.331Z,27.95
2022-11-24T22:04:06.035Z,25.88
2022-11-24T22:06:33.935Z,23.20
2022-11-24T22:09:01.533Z,28.70
2022-11-24T22:11:29.134Z,25.77
2022-11-24T22:13:56.707Z,20.27
2022-11-24T22:16:25.849Z,34.90
2022-11-24T22:18:53.731Z,28.38
2022-11-24T22:21:24.308Z,24.40
2022-11-24T22:23:53.029Z,29.40
2022-11-24T22:26:22.926Z,24.70
2022-11-24T22:28:50.914Z,20.05
2022-11-24T22:31:25.030Z,25.40
2022-11-24T22:33:53.682Z,24.17
2022-11-24T22:36:22.661Z,19.17
2022-11-24T22:38:58.802Z,22.15
2022-11-24T22:41:26.438Z,21.95
2022-11-24T22:43:54.016Z,20.25
2022-11-24T22:46:24.595Z,25.02
2022-11-24T22:48:53.632Z,30.83
2022-11-24T22:51:23.965Z,27.38
2022-11-24T22:53:53.760Z,22.80
2022-11-24T22:56:21.567Z,18.98
2022-11-24T22:58:49.264Z,27.20
2022-11-24T23:01:25.032Z,20.35
2022-11-24T23:03:54.592Z,16.35
2022-11-24T23:06:27.909Z,27.88
2022-11-24T23:08:57.522Z,14.55
2022-11-24T23:11:37.229Z,15.82
2022-11-24T23:14:07.686Z,18.25
2022-11-24T23:16:35.533Z,16.10
2022-11-24T23:19:03.320Z,16.75
2022-11-24T23:21:33.895Z,19.35
2022-11-24T23:24:03.577Z,17.80
2022-11-24T23:26:37.126Z,14.65
2022-11-24T23:29:05.880Z,15.32
2022-11-24T23:31:33.950Z,13.73
2022-11-24T23:34:03.532Z,12.63
2022-11-24T23:36:32.249Z,15.32
2022-11-24T23:39:08.643Z,13.27
2022-11-24T23:41:36.287Z,16.92
2022-11-24T23:44:03.974Z,16.15
2022-11-24T23:46:31.568Z,12.20
2022-11-24T23:48:59.736Z,20.17
2022-11-24T23:51:32.513Z,14.38
2022-11-24T23:54:01.232Z,13.43
2022-11-24T23:56:33.078Z,11.20
2022-11-24T23:59:02.499Z,16.58
